createdAt,value
2018-04-10T00:01:11.561Z,15.90
2018-04-10T00:03:39.070Z,16.00
2018-04-10T00:06:07.337Z,16.00
2018-04-10T00:08:34.847Z,16.00
2018-04-10T00:11:03.099Z,15.90
2018-04-10T00:13:30.611Z,15.90
2018-04-10T00:15:58.871Z,16.00
2018-04-10T00:18:26.391Z,15.90
2018-04-10T00:20:53.892Z,16.00
2018-04-10T00:23:21.401Z,16.10
2018-04-10T00:25:49.658Z,16.00
2018-04-10T00:28:17.170Z,16.00
2018-04-10T00:30:45.428Z,15.90
2018-04-10T00:33:12.956Z,15.80
2018-04-10T00:35:40.446Z,15.90
2018-04-10T00:38:07.945Z,15.90
2018-04-10T00:40:35.438Z,15.80
2018-04-10T00:43:03.709Z,15.90
2018-04-10T00:45:31.203Z,15.90
2018-04-10T00:47:58.711Z,15.90
2018-04-10T00:50:26.203Z,15.90
2018-04-10T00:52:53.722Z,15.90
2018-04-10T00:55:21.222Z,16.00
2018-04-10T00:57:48.734Z,15.90
2018-04-10T01:00:17.003Z,15.80
2018-04-10T01:02:44.626Z,15.80
2018-04-10T01:05:12.140Z,15.80
2018-04-10T01:07:39.634Z,15.60
2018-04-10T01:10:07.137Z,15.70
2018-04-10T01:12:34.621Z,15.80
2018-04-10T01:15:02.146Z,15.80
2018-04-10T01:17:29.634Z,15.80
2018-04-10T01:19:57.143Z,15.70
2018-04-10T01:22:24.630Z,15.70
2018-04-10T01:24:52.143Z,15.70
2018-04-10T01:27:19.644Z,15.70
2018-04-10T01:29:47.154Z,15.60
2018-04-10T01:32:14.781Z,15.50
2018-04-10T01:34:42.305Z,15.60
2018-04-10T01:37:09.878Z,15.50
2018-04-10T01:39:37.393Z,15.50
2018-04-10T01:42:04.878Z,15.40
2018-04-10T01:44:32.385Z,15.40
2018-04-10T01:46:59.873Z,15.60
2018-04-10T01:49:28.149Z,15.60
2018-04-10T01:51:55.644Z,15.50
2018-04-10T01:54:23.159Z,15.60
2018-04-10T01:56:50.656Z,15.60
2018-04-10T01:59:18.177Z,15.40
2018-04-10T02:01:46.439Z,15.10
2018-04-10T02:04:13.958Z,15.00
2018-04-10T02:06:41.447Z,15.00
2018-04-10T02:09:08.957Z,15.00
2018-04-10T02:11:36.452Z,15.00
2018-04-10T02:14:03.967Z,14.90
2018-04-10T02:16:31.466Z,14.90
2018-04-10T02:18:58.966Z,14.90
2018-04-10T02:21:26.474Z,14.90
2018-04-10T02:23:53.963Z,14.90
2018-04-10T02:26:22.247Z,15.00
2018-04-10T02:28:50.506Z,14.90
2018-04-10T02:31:18.027Z,14.90
2018-04-10T02:33:45.525Z,14.80
2018-04-10T02:36:13.044Z,14.60
2018-04-10T02:38:41.302Z,14.60
2018-04-10T02:41:08.810Z,14.60
2018-04-10T02:43:37.073Z,14.50
2018-04-10T02:46:04.588Z,14.50
2018-04-10T02:48:32.087Z,14.50
2018-04-10T02:50:59.616Z,14.60
2018-04-10T02:53:27.866Z,14.60
2018-04-10T02:55:55.374Z,14.60
2018-04-10T02:58:22.870Z,14.50
2018-04-10T03:00:50.385Z,14.40
2018-04-10T03:03:17.876Z,14.40
2018-04-10T03:05:46.151Z,14.50
2018-04-10T03:08:13.642Z,14.50
2018-04-10T03:10:41.157Z,14.50
2018-04-10T03:13:08.660Z,14.50
2018-04-10T03:15:36.956Z,14.50
2018-04-10T03:18:04.448Z,14.40
2018-04-10T03:20:31.949Z,14.60
2018-04-10T03:22:59.463Z,14.70
2018-04-10T03:25:27.722Z,14.70
2018-04-10T03:27:55.236Z,14.60
2018-04-10T03:30:23.493Z,14.70
2018-04-10T03:32:51.019Z,14.60
2018-04-10T03:35:18.515Z,14.60
2018-04-10T03:37:46.031Z,14.70
2018-04-10T03:40:14.399Z,14.70
2018-04-10T03:42:41.906Z,14.70
2018-04-10T03:45:09.398Z,14.90
2018-04-10T03:47:36.909Z,15.00
2018-04-10T03:50:04.401Z,15.00
2018-04-10T03:52:32.685Z,14.70
2018-04-10T03:55:00.950Z,14.60
2018-04-10T03:57:28.470Z,14.50
2018-04-10T03:59:55.954Z,14.50
2018-04-10T04:02:23.474Z,14.50
2018-04-10T04:04:50.962Z,14.50
2018-04-10T04:07:19.246Z,14.70
2018-04-10T04:09:47.515Z,14.60
2018-04-10T04:12:15.034Z,14.60
2018-04-10T04:14:42.523Z,14.60
2018-04-10T04:17:21.667Z,14.60
2018-04-10T04:20:01.808Z,14.50
2018-04-10T04:22:35.151Z,14.40
2018-04-10T04:25:02.650Z,14.40
2018-04-10T04:27:30.170Z,14.40
2018-04-10T04:29:57.665Z,14.40
2018-04-10T04:32:25.186Z,14.30
2018-04-10T04:34:53.455Z,14.30
2018-04-10T04:37:21.715Z,14.50
2018-04-10T04:39:49.231Z,14.50
2018-04-10T04:42:17.487Z,14.70
2018-04-10T04:44:45.003Z,14.60
2018-04-10T04:47:12.494Z,14.70
2018-04-10T04:49:40.015Z,14.60
2018-04-10T04:52:07.516Z,14.60
2018-04-10T04:54:35.022Z,14.60
2018-04-10T04:57:02.521Z,14.60
2018-04-10T04:59:30.030Z,14.50
2018-04-10T05:01:57.528Z,14.80
2018-04-10T05:04:25.047Z,15.00
2018-04-10T05:06:53.305Z,14.80
2018-04-10T05:09:20.802Z,14.70
2018-04-10T05:11:49.061Z,14.90
2018-04-10T05:14:16.575Z,14.80
2018-04-10T05:16:44.064Z,14.80
2018-04-10T05:19:11.625Z,14.70
2018-04-10T05:21:39.869Z,14.50
2018-04-10T05:24:07.383Z,14.50
2018-04-10T05:26:34.869Z,14.60
2018-04-10T05:29:02.394Z,14.60
2018-04-10T05:31:30.663Z,14.40
2018-04-10T05:33:58.152Z,14.40
2018-04-10T05:36:25.671Z,14.40
2018-04-10T05:38:53.171Z,14.40
2018-04-10T05:41:20.700Z,14.50
2018-04-10T05:43:48.194Z,14.50
2018-04-10T05:46:15.707Z,14.50
2018-04-10T05:48:44.021Z,14.60
2018-04-10T05:51:11.540Z,14.50
2018-04-10T05:53:39.037Z,14.70
2018-04-10T05:56:06.555Z,14.80
2018-04-10T05:58:34.052Z,14.70
2018-04-10T06:01:01.580Z,14.50
2018-04-10T06:03:29.080Z,14.40
2018-04-10T06:05:56.599Z,14.40
2018-04-10T06:08:24.086Z,14.40
2018-04-10T06:10:51.604Z,14.50
2018-04-10T06:13:19.100Z,14.50
2018-04-10T06:15:46.662Z,14.60
2018-04-10T06:18:14.126Z,14.70
2018-04-10T06:20:41.655Z,15.00
2018-04-10T06:23:09.142Z,15.10
2018-04-10T06:25:36.660Z,15.10
2018-04-10T06:28:04.918Z,15.00
2018-04-10T06:30:32.436Z,15.00
2018-04-10T06:32:59.926Z,15.10
2018-04-10T06:35:27.415Z,15.20
2018-04-10T06:37:54.939Z,15.10
2018-04-10T06:40:22.435Z,15.10
2018-04-10T06:42:49.945Z,15.10
2018-04-10T06:45:17.905Z,15.10
2018-04-10T06:47:45.418Z,15.10
2018-04-10T06:50:13.679Z,15.40
2018-04-10T06:52:41.203Z,15.40
2018-04-10T06:55:08.695Z,15.40
2018-04-10T06:57:36.198Z,15.40
2018-04-10T07:00:03.700Z,15.50
2018-04-10T07:02:31.216Z,15.60
2018-04-10T07:04:58.711Z,15.60
2018-04-10T07:07:26.235Z,15.60
2018-04-10T07:09:53.740Z,15.50
2018-04-10T07:12:21.264Z,15.60
2018-04-10T07:14:48.763Z,15.50
2018-04-10T07:17:16.279Z,15.60
2018-04-10T07:19:44.535Z,15.70
2018-04-10T07:22:12.041Z,15.60
2018-04-10T07:24:40.301Z,15.80
2018-04-10T07:27:07.815Z,15.80
2018-04-10T07:29:35.311Z,15.80
2018-04-10T07:32:02.817Z,15.80
2018-04-10T07:34:30.302Z,15.90
2018-04-10T07:36:57.796Z,16.10
2018-04-10T07:39:25.305Z,16.20
2018-04-10T07:41:52.800Z,16.10
2018-04-10T07:44:20.319Z,16.10
2018-04-10T07:46:47.824Z,16.10
2018-04-10T07:49:15.342Z,16.20
2018-04-10T07:51:42.839Z,16.30
2018-04-10T07:54:10.372Z,16.40
2018-04-10T07:56:38.626Z,16.60
2018-04-10T07:59:06.130Z,16.60
2018-04-10T08:01:34.403Z,16.70
2018-04-10T08:04:01.914Z,16.60
2018-04-10T08:06:29.408Z,16.70
2018-04-10T08:08:56.923Z,16.70
2018-04-10T08:11:24.414Z,16.70
2018-04-10T08:13:52.691Z,16.60
2018-04-10T08:16:20.960Z,16.70
2018-04-10T08:18:48.476Z,16.60
2018-04-10T08:21:15.979Z,16.70
2018-04-10T08:23:43.493Z,16.80
2018-04-10T08:26:11.751Z,16.70
2018-04-10T08:28:39.267Z,16.70
2018-04-10T08:31:06.763Z,16.80
2018-04-10T08:33:34.255Z,16.90
2018-04-10T08:36:01.774Z,16.90
2018-04-10T08:38:29.267Z,17.00
2018-04-10T08:40:56.774Z,17.00
2018-04-10T08:43:24.285Z,17.10
2018-04-10T08:45:51.807Z,17.20
2018-04-10T08:48:19.308Z,17.30
2018-04-10T08:50:47.590Z,17.40
2018-04-10T08:53:15.846Z,17.40
2018-04-10T08:55:43.367Z,17.40
2018-04-10T08:58:10.861Z,17.50
2018-04-10T09:00:38.385Z,17.70
2018-04-10T09:03:06.668Z,18.00
2018-04-10T09:05:34.182Z,17.90
2018-04-10T09:08:02.466Z,17.90
2018-04-10T09:10:29.991Z,17.80
2018-04-10T09:12:57.494Z,17.90
2018-04-10T09:15:25.033Z,17.90
2018-04-10T09:17:52.535Z,18.00
2018-04-10T09:20:20.061Z,18.10
2018-04-10T09:22:47.550Z,18.10
2018-04-10T09:25:15.071Z,18.10
2018-04-10T09:27:42.608Z,18.00
2018-04-10T09:30:10.871Z,18.00
2018-04-10T09:32:38.384Z,17.90
2018-04-10T09:35:05.891Z,17.90
2018-04-10T09:37:33.409Z,17.80
2018-04-10T09:40:01.682Z,17.60
2018-04-10T09:42:29.202Z,17.60
2018-04-10T09:44:57.463Z,17.60
2018-04-10T09:47:25.002Z,17.60
2018-04-10T09:49:52.509Z,17.70
2018-04-10T09:52:20.035Z,17.70
2018-04-10T09:54:47.524Z,17.80
2018-04-10T09:57:15.045Z,17.90
2018-04-10T09:59:42.551Z,17.90
2018-04-10T10:02:10.076Z,17.90
2018-04-10T10:04:37.577Z,17.90
2018-04-10T10:07:05.108Z,18.00
2018-04-10T10:09:32.607Z,18.00
2018-04-10T10:12:00.131Z,18.10
2018-04-10T10:14:28.390Z,18.10
2018-04-10T10:16:55.902Z,18.00
2018-04-10T10:19:23.404Z,18.20
2018-04-10T10:21:50.919Z,18.10
2018-04-10T10:24:18.422Z,18.20
2018-04-10T10:26:45.935Z,18.20
2018-04-10T10:29:13.458Z,18.30
2018-04-10T10:31:40.954Z,18.30
2018-04-10T10:34:08.485Z,18.40
2018-04-10T10:36:36.000Z,18.50
2018-04-10T10:39:03.528Z,18.50
2018-04-10T10:41:31.035Z,18.50
2018-04-10T10:43:58.552Z,18.50
2018-04-10T10:46:26.042Z,18.50
2018-04-10T10:48:53.562Z,18.60
2018-04-10T10:51:21.059Z,18.60
2018-04-10T10:53:48.566Z,18.70
2018-04-10T10:56:16.063Z,18.70
2018-04-10T10:58:43.566Z,18.80
2018-04-10T11:01:11.064Z,18.80
2018-04-10T11:03:39.343Z,18.90
2018-04-10T11:06:07.599Z,19.00
2018-04-10T11:08:35.120Z,18.90
2018-04-10T11:11:02.606Z,19.00
2018-04-10T11:13:30.117Z,19.10
2018-04-10T11:15:57.611Z,19.20
2018-04-10T11:18:25.884Z,19.30
2018-04-10T11:20:53.379Z,19.20
2018-04-10T11:23:21.652Z,19.40
2018-04-10T11:25:49.912Z,19.40
2018-04-10T11:28:17.435Z,19.30
2018-04-10T11:30:44.951Z,19.40
2018-04-10T11:33:12.436Z,19.40
2018-04-10T11:35:39.963Z,19.50
2018-04-10T11:38:07.450Z,19.60
2018-04-10T11:40:34.963Z,19.70
2018-04-10T11:43:03.218Z,19.80
2018-04-10T11:45:30.736Z,19.80
2018-04-10T11:47:58.989Z,20.00
2018-04-10T11:50:26.497Z,19.90
2018-04-10T11:52:53.981Z,20.00
2018-04-10T11:55:21.495Z,20.00
2018-04-10T11:57:48.986Z,20.00
2018-04-10T12:00:16.490Z,20.00
2018-04-10T12:02:43.986Z,20.00
2018-04-10T12:05:11.492Z,20.00
2018-04-10T12:07:38.981Z,20.00
2018-04-10T12:10:06.509Z,20.00
2018-04-10T12:12:34.001Z,20.00
2018-04-10T12:15:01.507Z,20.00
2018-04-10T12:17:28.986Z,19.90
2018-04-10T12:19:56.483Z,19.90
2018-04-10T12:22:24.010Z,19.90
2018-04-10T12:24:52.264Z,20.00
2018-04-10T12:27:19.780Z,20.00
2018-04-10T12:29:47.274Z,20.00
2018-04-10T12:32:14.787Z,20.10
2018-04-10T12:34:42.280Z,20.10
2018-04-10T12:37:10.098Z,20.20
2018-04-10T12:39:37.583Z,20.10
2018-04-10T12:42:05.094Z,20.10
2018-04-10T12:44:32.586Z,20.10
2018-04-10T12:47:00.092Z,20.10
2018-04-10T12:49:27.593Z,20.10
2018-04-10T12:51:55.102Z,20.10
2018-04-10T12:54:22.586Z,20.20
2018-04-10T12:56:50.090Z,20.30
2018-04-10T12:59:17.570Z,20.30
2018-04-10T13:01:45.856Z,20.40
2018-04-10T13:04:14.121Z,20.40
2018-04-10T13:06:41.617Z,20.40
2018-04-10T13:09:09.871Z,20.40
2018-04-10T13:11:37.373Z,20.30
2018-04-10T13:14:05.635Z,20.40
2018-04-10T13:16:33.147Z,20.30
2018-04-10T13:19:01.407Z,20.40
2018-04-10T13:21:28.909Z,20.40
2018-04-10T13:23:56.425Z,20.40
2018-04-10T13:26:23.910Z,20.50
2018-04-10T13:28:51.427Z,20.60
2018-04-10T13:31:18.915Z,20.60
2018-04-10T13:33:46.426Z,20.60
2018-04-10T13:36:13.911Z,20.60
2018-04-10T13:38:42.184Z,20.50
2018-04-10T13:41:09.682Z,20.50
2018-04-10T13:43:37.992Z,20.60
2018-04-10T13:46:05.467Z,20.50
2018-04-10T13:48:33.751Z,20.60
2018-04-10T13:51:01.232Z,20.60
2018-04-10T13:53:28.743Z,20.60
2018-04-10T13:55:56.231Z,20.60
2018-04-10T13:58:24.515Z,20.60
2018-04-10T14:00:52.776Z,20.60
2018-04-10T14:03:20.283Z,20.50
2018-04-10T14:05:48.535Z,20.50
2018-04-10T14:08:16.044Z,20.50
2018-04-10T14:10:44.299Z,20.50
2018-04-10T14:13:11.807Z,20.40
2018-04-10T14:15:39.302Z,20.50
2018-04-10T14:18:06.786Z,20.40
2018-04-10T14:20:34.290Z,20.40
2018-04-10T14:23:01.803Z,20.40
2018-04-10T14:25:29.310Z,20.40
2018-04-10T14:27:56.799Z,20.30
2018-04-10T14:30:24.312Z,20.30
2018-04-10T14:32:51.806Z,20.30
2018-04-10T14:35:19.319Z,20.30
2018-04-10T14:37:46.798Z,20.30
2018-04-10T14:40:15.083Z,20.20
2018-04-10T14:42:43.334Z,20.20
2018-04-10T14:45:10.879Z,20.10
2018-04-10T14:47:38.371Z,20.20
2018-04-10T14:50:05.887Z,20.20
2018-04-10T14:52:34.134Z,20.10
2018-04-10T14:55:01.647Z,20.10
2018-04-10T14:57:29.911Z,20.10
2018-04-10T14:59:57.426Z,20.10
2018-04-10T15:02:24.911Z,20.20
2018-04-10T15:04:52.423Z,20.20
2018-04-10T15:07:19.915Z,20.20
2018-04-10T15:09:48.190Z,20.20
2018-04-10T15:12:15.691Z,20.10
2018-04-10T15:14:43.205Z,20.20
2018-04-10T15:17:10.695Z,20.20
2018-04-10T15:19:38.219Z,20.30
2018-04-10T15:22:05.722Z,20.20
2018-04-10T15:24:33.239Z,20.30
2018-04-10T15:27:00.734Z,20.30
2018-04-10T15:29:28.227Z,20.20
2018-04-10T15:31:55.738Z,20.20
2018-04-10T15:34:23.991Z,20.20
2018-04-10T15:36:51.526Z,20.20
2018-04-10T15:39:19.010Z,20.10
2018-04-10T15:41:46.502Z,20.10
2018-04-10T15:44:14.211Z,20.10
2018-04-10T15:46:41.704Z,20.10
2018-04-10T15:49:09.185Z,20.10
2018-04-10T15:51:36.692Z,20.10
2018-04-10T15:54:04.187Z,20.10
2018-04-10T15:56:32.469Z,20.00
2018-04-10T15:59:00.731Z,20.00
2018-04-10T16:01:28.241Z,19.90
2018-04-10T16:03:56.498Z,19.80
2018-04-10T16:06:24.015Z,19.80
2018-04-10T16:08:51.498Z,19.80
2018-04-10T16:11:19.007Z,19.80
2018-04-10T16:13:46.493Z,19.80
2018-04-10T16:16:14.770Z,19.80
2018-04-10T16:18:42.271Z,19.80
2018-04-10T16:21:09.763Z,19.80
2018-04-10T16:23:37.273Z,19.80
2018-04-10T16:26:04.763Z,19.80
2018-04-10T16:28:32.274Z,19.80
2018-04-10T16:30:59.763Z,19.80
2018-04-10T16:33:27.270Z,19.70
2018-04-10T16:35:54.754Z,19.60
2018-04-10T16:38:23.027Z,19.50
2018-04-10T16:40:50.509Z,19.40
2018-04-10T16:43:18.778Z,19.50
2018-04-10T16:45:46.261Z,19.40
2018-04-10T16:48:14.535Z,19.40
2018-04-10T16:50:42.022Z,19.40
2018-04-10T16:53:10.313Z,19.30
2018-04-10T16:55:38.571Z,19.20
2018-04-10T16:58:06.084Z,19.10
2018-04-10T17:00:33.584Z,19.10
2018-04-10T17:03:01.100Z,19.10
2018-04-10T17:05:29.371Z,18.80
2018-04-10T17:07:56.899Z,18.70
2018-04-10T17:10:24.397Z,18.70
2018-04-10T17:12:51.902Z,18.70
2018-04-10T17:15:20.186Z,18.40
2018-04-10T17:17:47.730Z,18.40
2018-04-10T17:20:15.215Z,18.40
2018-04-10T17:22:42.730Z,18.20
2018-04-10T17:25:10.233Z,18.10
2018-04-10T17:27:37.744Z,17.90
2018-04-10T17:30:05.296Z,17.90
2018-04-10T17:32:32.788Z,17.90
2018-04-10T17:35:01.178Z,17.70
2018-04-10T17:37:29.434Z,17.50
2018-04-10T17:39:56.943Z,17.50
2018-04-10T17:42:24.431Z,17.30
2018-04-10T17:44:51.961Z,17.30
2018-04-10T17:47:19.456Z,17.20
2018-04-10T17:49:47.738Z,17.00
2018-04-10T17:52:15.990Z,16.90
2018-04-10T17:54:43.502Z,16.90
2018-04-10T17:57:11.760Z,16.90
2018-04-10T17:59:39.263Z,16.80
2018-04-10T18:02:06.756Z,16.90
2018-04-10T18:04:34.300Z,16.80
2018-04-10T18:07:01.807Z,16.60
2018-04-10T18:09:29.311Z,16.60
2018-04-10T18:11:56.798Z,16.40
2018-04-10T18:14:24.325Z,16.20
2018-04-10T18:16:51.810Z,16.10
2018-04-10T18:19:19.319Z,16.00
2018-04-10T18:21:47.593Z,15.90
2018-04-10T18:24:15.894Z,15.70
2018-04-10T18:26:43.418Z,15.70
2018-04-10T18:29:10.926Z,15.70
2018-04-10T18:31:38.453Z,15.60
2018-04-10T18:34:05.960Z,15.50
2018-04-10T18:36:33.484Z,15.30
2018-04-10T18:39:00.981Z,15.20
2018-04-10T18:41:28.505Z,15.20
2018-04-10T18:43:55.978Z,15.10
2018-04-10T18:46:23.928Z,15.00
2018-04-10T18:48:51.440Z,15.00
2018-04-10T18:51:18.944Z,15.10
2018-04-10T18:53:46.436Z,15.00
2018-04-10T18:56:13.949Z,14.90
2018-04-10T18:58:41.447Z,14.90
2018-04-10T19:01:08.966Z,15.00
2018-04-10T19:03:37.228Z,14.70
2018-04-10T19:06:05.208Z,14.70
2018-04-10T19:08:32.714Z,14.60
2018-04-10T19:11:00.227Z,14.60
2018-04-10T19:13:27.705Z,14.60
2018-04-10T19:15:55.222Z,14.50
2018-04-10T19:18:22.800Z,14.40
2018-04-10T19:20:50.301Z,14.30
2018-04-10T19:23:17.802Z,14.50
2018-04-10T19:25:45.316Z,14.30
2018-04-10T19:28:12.811Z,14.20
2018-04-10T19:30:40.354Z,14.20
2018-04-10T19:33:08.530Z,13.90
2018-04-10T19:35:37.015Z,14.10
2018-04-10T19:38:05.299Z,14.10
2018-04-10T19:40:32.807Z,14.00
2018-04-10T19:43:00.347Z,14.10
2018-04-10T19:45:28.638Z,14.10
2018-04-10T19:47:56.927Z,14.10
2018-04-10T19:50:25.200Z,14.10
2018-04-10T19:52:53.518Z,14.10
2018-04-10T19:55:21.028Z,14.30
2018-04-10T19:57:48.542Z,14.30
2018-04-10T20:00:16.034Z,14.40
2018-04-10T20:02:43.546Z,14.30
2018-04-10T20:05:11.035Z,14.50
2018-04-10T20:07:38.548Z,14.40
2018-04-10T20:10:06.038Z,14.30
2018-04-10T20:12:33.548Z,14.30
2018-04-10T20:15:01.040Z,14.40
2018-04-10T20:17:29.323Z,14.50
2018-04-10T20:19:57.586Z,14.60
2018-04-10T20:22:25.104Z,14.50
2018-04-10T20:24:52.594Z,14.60
2018-04-10T20:27:20.204Z,14.70
2018-04-10T20:29:47.694Z,14.60
2018-04-10T20:32:15.976Z,14.70
2018-04-10T20:34:44.237Z,14.70
2018-04-10T20:37:11.750Z,14.60
2018-04-10T20:39:40.030Z,13.80
2018-04-10T20:42:07.535Z,13.70
2018-04-10T20:44:35.042Z,13.70
2018-04-10T20:47:02.544Z,13.40
2018-04-10T20:49:30.831Z,13.00
2018-04-10T20:51:58.336Z,12.90
2018-04-10T20:54:25.870Z,13.00
2018-04-10T20:56:54.127Z,12.90
2018-04-10T20:59:21.639Z,12.80
2018-04-10T21:01:49.905Z,13.00
2018-04-10T21:04:17.427Z,13.00
2018-04-10T21:06:44.950Z,13.00
2018-04-10T21:09:12.460Z,13.00
2018-04-10T21:11:39.959Z,13.10
2018-04-10T21:14:08.865Z,13.10
2018-04-10T21:16:36.463Z,12.60
2018-04-10T21:19:04.756Z,12.30
2018-04-10T21:21:33.017Z,11.90
2018-04-10T21:24:00.526Z,11.80
2018-04-10T21:26:28.786Z,12.10
2018-04-10T21:28:56.307Z,12.00
2018-04-10T21:31:23.843Z,12.10
2018-04-10T21:33:51.331Z,11.90
2018-04-10T21:36:18.817Z,12.00
2018-04-10T21:38:46.326Z,11.80
2018-04-10T21:41:13.814Z,11.70
2018-04-10T21:43:41.942Z,11.70
2018-04-10T21:46:10.227Z,11.80
2018-04-10T21:48:37.731Z,11.70
2018-04-10T21:51:05.243Z,11.70
2018-04-10T21:53:33.494Z,11.20
2018-04-10T21:56:01.002Z,11.10
2018-04-10T21:58:29.257Z,11.10
2018-04-10T22:00:56.766Z,11.00
2018-04-10T22:03:25.023Z,11.40
2018-04-10T22:05:52.537Z,11.30
2018-04-10T22:08:20.039Z,11.40
2018-04-10T22:10:47.540Z,11.30
2018-04-10T22:13:15.033Z,11.10
2018-04-10T22:15:43.317Z,11.00
2018-04-10T22:18:10.886Z,11.00
2018-04-10T22:20:39.192Z,11.20
2018-04-10T22:23:07.464Z,11.20
2018-04-10T22:25:34.989Z,11.20
2018-04-10T22:28:02.515Z,11.30
2018-04-10T22:30:30.805Z,11.30
2018-04-10T22:32:59.080Z,11.50
2018-04-10T22:35:26.603Z,11.40
2018-04-10T22:37:54.101Z,11.70
2018-04-10T22:40:21.610Z,11.70
2018-04-10T22:42:49.103Z,11.80
2018-04-10T22:45:16.614Z,11.80
2018-04-10T22:47:44.864Z,12.10
2018-04-10T22:50:12.380Z,12.00
2018-04-10T22:52:39.867Z,12.10
2018-04-10T22:55:07.345Z,12.20
2018-04-10T22:57:34.872Z,12.20
2018-04-10T23:00:02.360Z,12.10
2018-04-10T23:02:29.867Z,11.90
2018-04-10T23:04:57.370Z,12.10
2018-04-10T23:07:24.890Z,12.00
2018-04-10T23:09:52.387Z,12.00
2018-04-10T23:12:20.084Z,12.00
2018-04-10T23:14:47.589Z,12.00
2018-04-10T23:17:15.130Z,11.90
2018-04-10T23:19:42.640Z,11.90
2018-04-10T23:22:10.958Z,11.70
2018-04-10T23:24:38.480Z,11.70
2018-04-10T23:27:06.013Z,11.60
2018-04-10T23:29:33.536Z,11.70
2018-04-10T23:32:01.071Z,11.60
2018-04-10T23:34:28.805Z,11.60
2018-04-10T23:36:56.365Z,11.50
2018-04-10T23:39:24.655Z,11.40
2018-04-10T23:41:52.966Z,11.30
2018-04-10T23:44:20.572Z,11.30
2018-04-10T23:46:48.394Z,11.40
2018-04-10T23:49:16.700Z,11.10
2018-04-10T23:51:45.027Z,11.20
2018-04-10T23:54:12.554Z,11.20
2018-04-10T23:56:40.886Z,11.30
2018-04-10T23:59:08.413Z,11.30
